KBBD/BBD METAR and TAF weather

Enter ICAO airport designator
Station Type Date Time Source
KBBD METAR 2021/05/15 01:35 UTC NOAA

KBBD 150135Z AUTO 15010G16KT 10SM OVC055 23/14 A3006 RMK AO2 LTG DSNT SW


Station Type Date Time Source
KBBD Decoded METAR 2021/05/15 01:35 UTC NOAA

Brady, Curtis Field Airport, TX, United States (KBBD) 31-10-45N 099-19-26W
May 14, 2021 - 09:35 PM EDT / 2021.05.15 0135 UTC
Wind: from the SSE (150 degrees) at 12 MPH (10 KT) gusting to 18 MPH (16 KT):0
Visibility: 10 mile(s):0
Sky conditions: overcast
Weather: Lightning observed
Temperature: 73 F (23 C)
Dew Point: 57 F (14 C)
Relative Humidity: 56%
Pressure (altimeter): 30.06 in. Hg (1017 hPa)
ob: KBBD 150135Z AUTO 15010G16KT 10SM OVC055 23/14 A3006 RMK AO2 LTG DSNT SW
cycle: 1

Station Type Date Time Source
KBBD TAF 2021/05/14 18:27 UTC NOAA

TAF KBBD 141725Z 1418/1518 15010G18KT P6SM BKN028
FM141900 15011G18KT P6SM SCT050
FM150000 14009KT P6SM SKC
FM150900 15010KT P6SM OVC012
FM151600 16013G20KT P6SM OVC015

Example: see airport list